YPGV/GOV METAR and TAF weather

Enter ICAO airport designator
Station Type Date Time Source
YPGV METAR 2022/11/30 09:49 UTC NOAA

YPGV 300949Z AUTO 19004KT 9999 // SCT006 SCT025 SCT038 24/23 Q1004


Station Type Date Time Source
YPGV Decoded METAR 2022/11/30 09:49 UTC NOAA

Station name not available
Nov 30, 2022 - 04:49 AM EST / 2022.11.30 0949 UTC
Wind: from the S (190 degrees) at 5 MPH (4 KT):0
Visibility: greater than 7 mile(s):0
Sky conditions: partly cloudy
Temperature: 75 F (24 C)
Dew Point: 73 F (23 C)
Relative Humidity: 94%
Pressure (altimeter): 29.65 in. Hg (1004 hPa)
ob: YPGV 300949Z AUTO 19004KT 9999 // SCT006 SCT025 SCT038 24/23 Q1004
cycle: 10

Station Type Date Time Source
YPGV TAF 2022/11/30 08:00 UTC NOAA

TAF YPGV 300716Z 3008/3020 16008KT 9999 SCT020
TEMPO 3008/3015 1500 SHRA BKN005 FEW020TCU PROB30
TEMPO 3008/3015 VRB20G35KT 0500 TSRA BKN005 SCT020CB

Example: see airport list